Pleasant Plains, AR (72568)

9:37 PM CDT on April 25, 2015 (GMT -0500)
Floral & Main | | Change Station
CLOSE
Current Station
Personal Weather Station
Location: Pleasant Plains, AR
Elevation: 630 ft
Nearby Weather Stations
Active Advisory: Flood Warning

Elev 630 ft 35.56 °N, 91.63 °W | Updated 23 minutes ago

Clear
Clear
66.0 °F
Feels Like 66.0 °F
N
0.0
Wind Variable Wind from West
Gusts 0.0 mph

Today
High -- | Low -- °F
--% Chance of Precip.
Yesterday
High -- | Low -- °F
Precip. -- in
6:21 AM 7:47 PM
Waxing Crescent, 51% visible
Pressure 29.59 in
Visibility 10.0 miles
Clouds Clear
Dew Point 50 °F
Humidity 57%
Rainfall 0.00 in
Snow Depth Not available.
UV 0 out of 12
Pollen 8.00 out of 12
Air Quality Not available.
Flu Activity Sporadic
METAR KBVX 260215Z AUTO 25004KT 10SM CLR 21/11 A2959 RMK AO1

More Conditions Fewer Conditions

Pressure 29.59 in
Visibility 10.0 miles
Clouds Clear
Dew Point 50 °F
Humidity 57%
Rainfall 0.00 in
Snow Depth Not available.
UV 0 out of 12
Pollen 8.00 out of 12
Air Quality Not available.
Flu Activity Sporadic
METAR KBVX 260215Z AUTO 25004KT 10SM CLR 21/11 A2959 RMK AO1

More Conditions Fewer Conditions

10-Day Weather Forecast

Almanac

Astronomy

Apr. 25, 2015 Rise Set
Actual Time
Civil Twilight
Nautical Twilight
Astronomical Twilight
Moon
Length of Visible Light
Length of Day
Tomorrow will be .
, % of the Moon is Illuminated

Today's Extremes

State Highs State Lows

Community

WunderPhotos

Upload Photos

1,816,904 photos uploaded!

WunderBlogs® & News

Nearby

Air Quality

  Air Quality AQ Index Pollutant
Not available.

Snow Depth

Station Depth Elevation

Earthquake Activity

City Distance Mag. Time & Date
Minimum magnitude displayed is 2.5.

Coastal Water Temperatures

Place Temperature

Stations

Nearby Weather Stations

Station Location Temp. Windchill Dew Point Humidity Wind Precip. Elev Updated Type
                   
Flood Warning
Statement as of 8:10 PM CDT on April 25, 2015

The Flood Warning continues for
the Black River at Black Rock.
* Until Thursday afternoon... or until the warning is cancelled.
* At 7:00 PM Saturday the stage was 16.0 feet.
* Minor flooding is occurring and minor flooding is forecast.
* Flood stage is 14.0 feet.
* Forecast... the river will continue to fall to below flood stage by
Wednesday morning.
* Impacts at 14.0 feet... minor flooding begins. Farm ground along
East Bank begins to flood.


             Fld observed forecast 7 am
location stg stg day time sun Mon Tue Wed Thu

Black River
Black Rock 14 16.0 Sat 07 PM 15.7 15.1 14.6 14.0 13.6




Lat... Lon 3570 9140 3591 9125 3612 9115 3610 9101
3588 9110 3564 9128



224